createdAt,value
2018-12-31T00:00:29.620Z,98780.42
2018-12-31T00:01:08.937Z,98789.39
2018-12-31T00:01:40.558Z,98787.68
2018-12-31T00:02:12.150Z,98781.75
2018-12-31T00:02:43.746Z,98786.44
2018-12-31T00:03:15.339Z,98786.44
2018-12-31T00:03:46.934Z,98791.05
2018-12-31T00:04:18.525Z,98789.47
2018-12-31T00:04:50.117Z,98789.51
2018-12-31T00:05:21.710Z,98790.82
2018-12-31T00:05:53.435Z,98797.25
2018-12-31T00:06:24.973Z,98793.84
2018-12-31T00:06:56.578Z,98791.33
2018-12-31T00:07:28.173Z,98800.71
2018-12-31T00:07:59.765Z,98799.04
2018-12-31T00:08:31.362Z,98799.89
2018-12-31T00:09:02.940Z,98795.63
2018-12-31T00:09:34.534Z,98803.77
2018-12-31T00:10:06.136Z,98799.08
2018-12-31T00:10:37.765Z,98806.36
2018-12-31T00:11:09.349Z,98803.80
2018-12-31T00:11:40.973Z,98809.38
2018-12-31T00:12:12.581Z,98801.72
2018-12-31T00:12:44.196Z,98807.72
2018-12-31T00:13:15.790Z,98809.00
2018-12-31T00:13:47.396Z,98813.72
2018-12-31T00:14:18.989Z,98811.63
2018-12-31T00:14:50.599Z,98812.48
2018-12-31T00:15:22.193Z,98814.22
2018-12-31T00:15:53.804Z,98820.61
2018-12-31T00:16:25.412Z,98818.09
2018-12-31T00:16:57.033Z,98823.62
2018-12-31T00:17:28.630Z,98821.08
2018-12-31T00:18:00.240Z,98818.97
2018-12-31T00:18:31.847Z,98816.88
2018-12-31T00:19:03.445Z,98817.73
2018-12-31T00:19:35.052Z,98813.93
2018-12-31T00:20:06.636Z,98817.30
2018-12-31T00:20:38.225Z,98821.99
2018-12-31T00:21:09.819Z,98817.30
2018-12-31T00:21:41.443Z,98808.78
2018-12-31T00:22:13.049Z,98805.86
2018-12-31T00:22:44.655Z,98810.52
2018-12-31T00:23:16.264Z,98808.84
2018-12-31T00:23:47.867Z,98812.26
2018-12-31T00:24:19.480Z,98808.42
2018-12-31T00:24:51.080Z,98813.53
2018-12-31T00:25:22.670Z,98814.84
2018-12-31T00:25:54.251Z,98814.42
2018-12-31T00:26:25.855Z,98805.50
2018-12-31T00:26:57.489Z,98810.19
2018-12-31T00:27:29.096Z,98812.35
2018-12-31T00:28:00.689Z,98809.38
2018-12-31T00:28:32.289Z,98810.26
2018-12-31T00:29:03.900Z,98812.39
2018-12-31T00:29:35.493Z,98811.56
2018-12-31T00:30:07.081Z,98820.94
2018-12-31T00:30:38.686Z,98815.44
2018-12-31T00:31:10.299Z,98815.86
2018-12-31T00:31:41.894Z,98816.74
2018-12-31T00:32:13.514Z,98814.61
2018-12-31T00:32:45.143Z,98810.78
2018-12-31T00:33:16.745Z,98810.81
2018-12-31T00:33:48.334Z,98815.49
2018-12-31T00:34:19.926Z,98811.66
2018-12-31T00:34:51.536Z,98813.83
2018-12-31T00:35:23.120Z,98809.56
2018-12-31T00:35:54.714Z,98812.13
2018-12-31T00:36:26.307Z,98816.41
2018-12-31T00:36:57.926Z,98813.00
2018-12-31T00:37:29.524Z,98816.44
2018-12-31T00:38:01.118Z,98812.60
2018-12-31T00:38:32.711Z,98815.19
2018-12-31T00:39:04.295Z,98812.20
2018-12-31T00:39:35.900Z,98814.34
2018-12-31T00:40:07.494Z,98820.33
2018-12-31T00:40:39.086Z,98815.65
2018-12-31T00:41:10.687Z,98818.20
2018-12-31T00:41:42.284Z,98827.14
2018-12-31T00:42:13.911Z,98824.16
2018-12-31T00:42:45.502Z,98825.47
2018-12-31T00:43:17.098Z,98824.20
2018-12-31T00:43:48.690Z,98822.09
2018-12-31T00:44:20.281Z,98825.92
2018-12-31T00:44:51.883Z,98824.67
2018-12-31T00:45:24.100Z,98829.78
2018-12-31T00:45:55.708Z,98822.15
2018-12-31T00:46:27.302Z,98830.27
2018-12-31T00:46:58.894Z,98820.89
2018-12-31T00:47:30.510Z,98826.03
2018-12-31T00:48:02.096Z,98822.20
2018-12-31T00:48:33.676Z,98828.16
2018-12-31T00:49:05.266Z,98825.61
2018-12-31T00:49:36.857Z,98821.77
2018-12-31T00:50:08.463Z,98827.34
2018-12-31T00:50:40.123Z,98821.75
2018-12-31T00:51:11.727Z,98826.83
2018-12-31T00:51:43.322Z,98825.16
2018-12-31T00:52:14.940Z,98826.47
2018-12-31T00:52:46.520Z,98829.47
2018-12-31T00:53:18.114Z,98832.02
2018-12-31T00:53:49.696Z,98831.64
2018-12-31T00:54:21.304Z,98833.03
2018-12-31T00:54:52.907Z,98843.23
2018-12-31T00:55:24.556Z,98844.97
2018-12-31T00:55:56.151Z,98843.69
2018-12-31T00:56:27.728Z,98838.12
2018-12-31T00:56:59.323Z,98844.52
2018-12-31T00:57:30.952Z,98847.07
2018-12-31T00:58:02.537Z,98849.63
2018-12-31T00:58:34.139Z,98845.73
2018-12-31T00:59:05.735Z,98838.51
2018-12-31T00:59:37.360Z,98840.61
2018-12-31T01:00:08.958Z,98845.69
2018-12-31T01:00:40.567Z,98838.88
2018-12-31T01:01:12.176Z,98840.16
2018-12-31T01:01:43.774Z,98843.94
2018-12-31T01:02:15.404Z,98844.37
2018-12-31T01:02:46.998Z,98849.91
2018-12-31T01:03:18.594Z,98845.59
2018-12-31T01:03:50.204Z,98848.16
2018-12-31T01:04:21.798Z,98847.28
2018-12-31T01:04:53.390Z,98849.38
2018-12-31T01:05:24.987Z,98850.63
2018-12-31T01:05:56.641Z,98849.32
2018-12-31T01:06:28.234Z,98853.98
2018-12-31T01:06:59.826Z,98854.80
2018-12-31T01:07:31.446Z,98850.09
2018-12-31T01:08:03.051Z,98854.75
2018-12-31T01:08:34.654Z,98861.08
2018-12-31T01:09:06.236Z,98860.63
2018-12-31T01:09:37.840Z,98849.91
2018-12-31T01:10:09.439Z,98849.88
2018-12-31T01:10:41.043Z,98855.39
2018-12-31T01:11:12.638Z,98852.34
2018-12-31T01:11:44.245Z,98850.61
2018-12-31T01:12:15.828Z,98855.66
2018-12-31T01:12:47.408Z,98852.64
2018-12-31T01:13:19.003Z,98849.63
2018-12-31T01:13:50.594Z,98856.42
2018-12-31T01:14:22.199Z,98849.95
2018-12-31T01:14:53.812Z,98856.78
2018-12-31T01:15:25.481Z,98859.73
2018-12-31T01:15:57.076Z,98855.89
2018-12-31T01:16:28.684Z,98856.74
2018-12-31T01:17:00.292Z,98855.46
2018-12-31T01:17:31.915Z,98852.02
2018-12-31T01:18:03.496Z,98860.97
2018-12-31T01:18:35.085Z,98864.77
2018-12-31T01:19:06.677Z,98857.92
2018-12-31T01:19:38.282Z,98861.33
2018-12-31T01:20:09.877Z,98861.30
2018-12-31T01:20:41.487Z,98863.03
2018-12-31T01:21:13.107Z,98857.06
2018-12-31T01:21:44.697Z,98861.72
2018-12-31T01:22:16.303Z,98850.67
2018-12-31T01:22:47.890Z,98859.13
2018-12-31T01:23:19.482Z,98855.25
2018-12-31T01:23:51.076Z,98856.53
2018-12-31T01:24:22.669Z,98853.08
2018-12-31T01:24:54.279Z,98856.07
2018-12-31T01:25:25.873Z,98862.04
2018-12-31T01:25:57.523Z,98853.97
2018-12-31T01:26:29.113Z,98860.76
2018-12-31T01:27:00.719Z,98855.22
2018-12-31T01:27:32.345Z,98853.08
2018-12-31T01:28:03.959Z,98852.66
2018-12-31T01:28:35.564Z,98851.80
2018-12-31T01:29:07.176Z,98850.95
2018-12-31T01:29:38.770Z,98859.05
2018-12-31T01:30:10.366Z,98853.13
2018-12-31T01:30:41.962Z,98853.55
2018-12-31T01:31:13.558Z,98851.88
2018-12-31T01:31:45.149Z,98859.13
2018-12-31T01:32:16.748Z,98855.32
2018-12-31T01:32:48.351Z,98856.60
2018-12-31T01:33:19.961Z,98852.80
2018-12-31T01:33:52.595Z,98857.48
2018-12-31T01:34:23.201Z,98852.83
2018-12-31T01:34:54.798Z,98855.42
2018-12-31T01:35:26.412Z,98847.75
2018-12-31T01:35:58.009Z,98854.16
2018-12-31T01:36:29.602Z,98849.89
2018-12-31T01:37:01.188Z,98849.50
2018-12-31T01:37:32.796Z,98842.28
2018-12-31T01:38:04.433Z,98853.83
2018-12-31T01:38:36.030Z,98847.43
2018-12-31T01:39:07.685Z,98850.41
2018-12-31T01:39:39.277Z,98851.27
2018-12-31T01:40:10.868Z,98850.41
2018-12-31T01:40:42.468Z,98853.86
2018-12-31T01:41:14.075Z,98863.23
2018-12-31T01:41:45.669Z,98862.84
2018-12-31T01:42:17.276Z,98868.38
2018-12-31T01:42:48.898Z,98861.56
2018-12-31T01:43:20.491Z,98855.20
2018-12-31T01:43:52.096Z,98860.78
2018-12-31T01:44:23.680Z,98848.41
2018-12-31T01:44:55.275Z,98854.41
2018-12-31T01:45:26.888Z,98853.56
2018-12-31T01:45:58.496Z,98850.58
2018-12-31T01:46:30.072Z,98856.16
2018-12-31T01:47:01.680Z,98852.77
2018-12-31T01:47:33.273Z,98855.76
2018-12-31T01:48:04.889Z,98853.62
2018-12-31T01:48:36.496Z,98854.12
2018-12-31T01:49:08.113Z,98861.75
2018-12-31T01:49:39.714Z,98862.64
2018-12-31T01:50:11.306Z,98862.23
2018-12-31T01:50:42.912Z,98864.83
2018-12-31T01:51:14.515Z,98862.70
2018-12-31T01:51:46.097Z,98862.27
2018-12-31T01:52:17.695Z,98867.80
2018-12-31T01:52:49.300Z,98861.02
2018-12-31T01:53:20.930Z,98853.78
2018-12-31T01:53:52.526Z,98855.94
2018-12-31T01:54:24.127Z,98858.92
2018-12-31T01:54:55.721Z,98863.61
2018-12-31T01:55:27.315Z,98865.31
2018-12-31T01:55:58.924Z,98859.38
2018-12-31T01:56:30.508Z,98867.47
2018-12-31T01:57:02.097Z,98862.81
2018-12-31T01:57:33.704Z,98864.94
2018-12-31T01:58:05.307Z,98864.55
2018-12-31T01:58:36.906Z,98862.44
2018-12-31T01:59:08.498Z,98857.75
2018-12-31T01:59:40.091Z,98863.32
2018-12-31T02:00:11.686Z,98863.78
2018-12-31T02:00:43.285Z,98865.05
2018-12-31T02:01:14.942Z,98872.72
2018-12-31T02:01:46.523Z,98863.80
2018-12-31T02:02:18.130Z,98857.02
2018-12-31T02:02:49.732Z,98866.80
2018-12-31T02:03:21.351Z,98867.69
2018-12-31T02:03:52.946Z,98866.84
2018-12-31T02:04:24.541Z,98858.34
2018-12-31T02:04:56.139Z,98860.91
2018-12-31T02:05:27.737Z,98863.45
2018-12-31T02:05:59.348Z,98867.28
2018-12-31T02:06:30.951Z,98831.27
2018-12-31T02:07:02.546Z,98870.30
2018-12-31T02:07:34.151Z,98872.42
2018-12-31T02:08:05.873Z,98863.91
2018-12-31T02:08:37.466Z,98868.59
2018-12-31T02:09:09.068Z,98879.66
2018-12-31T02:09:40.648Z,98872.87
2018-12-31T02:10:12.242Z,98874.16
2018-12-31T02:10:43.834Z,98872.45
2018-12-31T02:11:15.431Z,98869.03
2018-12-31T02:11:47.040Z,98870.77
2018-12-31T02:12:18.633Z,98876.30
2018-12-31T02:12:50.226Z,98875.88
2018-12-31T02:13:21.842Z,98881.01
2018-12-31T02:13:53.431Z,98869.94
2018-12-31T02:14:25.011Z,98872.06
2018-12-31T02:14:56.605Z,98871.23
2018-12-31T02:15:28.199Z,98877.20
2018-12-31T02:15:59.808Z,98874.66
2018-12-31T02:16:31.420Z,98869.13
2018-12-31T02:17:03.008Z,98878.50
2018-12-31T02:17:34.625Z,98871.28
2018-12-31T02:18:06.217Z,98873.02
2018-12-31T02:18:37.834Z,98875.17
2018-12-31T02:19:09.422Z,98876.84
2018-12-31T02:19:41.013Z,98875.56
2018-12-31T02:20:12.606Z,98885.81
2018-12-31T02:20:44.198Z,98874.31
2018-12-31T02:21:15.793Z,98882.84
2018-12-31T02:21:47.396Z,98882.00
2018-12-31T02:22:18.994Z,98876.89
2018-12-31T02:22:50.604Z,98878.62
2018-12-31T02:23:22.236Z,98878.62
2018-12-31T02:23:53.844Z,98875.66
2018-12-31T02:24:25.438Z,98887.13
2018-12-31T02:24:57.030Z,98873.08
2018-12-31T02:25:28.636Z,98884.98
2018-12-31T02:26:00.244Z,98880.30
2018-12-31T02:26:31.837Z,98884.11
2018-12-31T02:27:03.426Z,98883.23
2018-12-31T02:27:35.032Z,98887.89
2018-12-31T02:28:06.616Z,98880.63
2018-12-31T02:28:38.312Z,98881.03
2018-12-31T02:29:09.905Z,98883.56
2018-12-31T02:29:41.520Z,98883.56
2018-12-31T02:30:13.115Z,98884.81
2018-12-31T02:30:44.715Z,98883.97
2018-12-31T02:31:16.328Z,98877.14
2018-12-31T02:31:47.921Z,98880.94
2018-12-31T02:32:19.505Z,98873.70
2018-12-31T02:32:51.116Z,98880.92
2018-12-31T02:33:22.737Z,98883.05
2018-12-31T02:33:54.365Z,98876.63
2018-12-31T02:34:25.954Z,98888.10
2018-12-31T02:34:57.556Z,98879.56
2018-12-31T02:35:29.154Z,98882.91
2018-12-31T02:36:00.749Z,98885.45
2018-12-31T02:36:32.342Z,98877.75
2018-12-31T02:37:03.949Z,98882.86
2018-12-31T02:37:35.541Z,98876.88
2018-12-31T02:38:07.135Z,98877.27
2018-12-31T02:38:38.759Z,98883.63
2018-12-31T02:39:10.368Z,98878.06
2018-12-31T02:39:41.953Z,98886.13
2018-12-31T02:40:13.559Z,98884.85
2018-12-31T02:40:45.179Z,98892.49
2018-12-31T02:41:16.773Z,98883.12
2018-12-31T02:41:48.356Z,98892.06
2018-12-31T02:42:19.960Z,98880.53
2018-12-31T02:42:51.548Z,98875.81
2018-12-31T02:43:23.128Z,98886.44
2018-12-31T02:43:54.739Z,98888.11
2018-12-31T02:44:26.337Z,98892.34
2018-12-31T02:44:57.944Z,98879.56
2018-12-31T02:45:29.551Z,98887.63
2018-12-31T02:46:01.146Z,98884.61
2018-12-31T02:46:32.747Z,98882.02
2018-12-31T02:47:04.338Z,98884.52
2018-12-31T02:47:35.920Z,98882.35
2018-12-31T02:48:07.528Z,98882.29
2018-12-31T02:48:39.176Z,98878.45
2018-12-31T02:49:10.793Z,98887.73
2018-12-31T02:49:42.390Z,98890.33
2018-12-31T02:50:13.996Z,98892.95
2018-12-31T02:50:45.599Z,98893.89
2018-12-31T02:51:17.194Z,98892.25
2018-12-31T02:51:48.791Z,98887.23
2018-12-31T02:52:20.387Z,98893.23
2018-12-31T02:52:51.988Z,98894.53
2018-12-31T02:53:23.583Z,98891.98
2018-12-31T02:53:55.201Z,98894.08
2018-12-31T02:54:26.794Z,98897.49
2018-12-31T02:54:58.394Z,98899.56
2018-12-31T02:55:29.995Z,98898.28
2018-12-31T02:56:01.599Z,98893.98
2018-12-31T02:56:33.197Z,98900.81
2018-12-31T02:57:04.790Z,98898.65
2018-12-31T02:57:36.396Z,98897.34
2018-12-31T02:58:07.984Z,98893.92
2018-12-31T02:58:39.578Z,98894.75
2018-12-31T02:59:11.197Z,98893.89
2018-12-31T02:59:42.807Z,98893.47
2018-12-31T03:00:14.411Z,98892.19
2018-12-31T03:00:46.024Z,98900.75
2018-12-31T03:01:17.633Z,98893.08
2018-12-31T03:01:49.245Z,98892.65
2018-12-31T03:02:20.847Z,98900.32
2018-12-31T03:02:52.464Z,98895.63
2018-12-31T03:03:24.085Z,98897.77
2018-12-31T03:03:55.703Z,98898.19
2018-12-31T03:04:27.311Z,98879.56
2018-12-31T03:04:58.906Z,98902.48
2018-12-31T03:05:30.507Z,98900.78
2018-12-31T03:06:02.096Z,98896.91
2018-12-31T03:06:33.691Z,98898.65
2018-12-31T03:07:05.296Z,98899.92
2018-12-31T03:07:36.902Z,98899.50
2018-12-31T03:08:08.491Z,98897.40
2018-12-31T03:08:40.081Z,98893.14
2018-12-31T03:09:11.697Z,98895.72
2018-12-31T03:09:43.308Z,98896.58
2018-12-31T03:10:14.902Z,98891.49
2018-12-31T03:10:46.516Z,98889.36
2018-12-31T03:11:18.122Z,98890.22
2018-12-31T03:11:49.730Z,98888.53
2018-12-31T03:12:21.321Z,98888.57
2018-12-31T03:12:52.919Z,98892.01
2018-12-31T03:13:24.518Z,98889.88
2018-12-31T03:13:56.138Z,98889.91
2018-12-31T03:14:27.763Z,98893.74
2018-12-31T03:14:59.358Z,98894.63
2018-12-31T03:15:30.962Z,98890.36
2018-12-31T03:16:02.651Z,98889.94
2018-12-31T03:16:34.223Z,98884.00
2018-12-31T03:17:05.825Z,98895.08
2018-12-31T03:17:37.427Z,98888.29
2018-12-31T03:18:09.036Z,98888.28
2018-12-31T03:18:40.646Z,98878.12
2018-12-31T03:19:12.279Z,98886.64
2018-12-31T03:19:43.892Z,98885.36
2018-12-31T03:20:15.491Z,98882.83
2018-12-31T03:20:47.100Z,98885.81
2018-12-31T03:21:18.715Z,98882.01
2018-12-31T03:21:50.311Z,98882.04
2018-12-31T03:22:21.891Z,98879.48
2018-12-31T03:22:53.492Z,98880.36
2018-12-31T03:23:25.091Z,98879.48
2018-12-31T03:23:56.691Z,98880.36
2018-12-31T03:24:28.324Z,98879.08
2018-12-31T03:24:59.927Z,98880.81
2018-12-31T03:25:31.521Z,98880.81
2018-12-31T03:26:03.132Z,98876.98
2018-12-31T03:26:34.727Z,98876.16
2018-12-31T03:27:06.321Z,98880.41
2018-12-31T03:27:37.917Z,98880.44
2018-12-31T03:28:09.518Z,98880.86
2018-12-31T03:28:41.180Z,98879.59
2018-12-31T03:29:12.822Z,98891.94
2018-12-31T03:29:44.429Z,98883.45
2018-12-31T03:30:16.051Z,98873.23
2018-12-31T03:30:47.648Z,98878.33
2018-12-31T03:31:19.243Z,98880.46
2018-12-31T03:31:50.839Z,98874.95
2018-12-31T03:32:22.472Z,98875.83
2018-12-31T03:32:54.085Z,98873.27
2018-12-31T03:33:25.691Z,98880.55
2018-12-31T03:33:57.289Z,98883.95
2018-12-31T03:34:28.896Z,98887.38
2018-12-31T03:35:00.486Z,98882.70
2018-12-31T03:35:32.101Z,98885.24
2018-12-31T03:36:03.706Z,98889.92
2018-12-31T03:36:35.311Z,98884.84
2018-12-31T03:37:06.905Z,98880.16
2018-12-31T03:37:38.499Z,98880.58
2018-12-31T03:38:10.089Z,98888.70
2018-12-31T03:38:41.696Z,98887.84
2018-12-31T03:39:13.303Z,98886.16
2018-12-31T03:39:44.924Z,98882.33
2018-12-31T03:40:16.513Z,98894.67
2018-12-31T03:40:48.107Z,98889.56
2018-12-31T03:41:19.717Z,98893.42
2018-12-31T03:41:51.318Z,98918.56
2018-12-31T03:42:22.910Z,98892.59
2018-12-31T03:42:54.520Z,98882.38
2018-12-31T03:43:26.103Z,98898.97
2018-12-31T03:43:57.709Z,98890.91
2018-12-31T03:44:29.332Z,98901.55
2018-12-31T03:45:00.944Z,98899.42
2018-12-31T03:45:32.552Z,98896.87
2018-12-31T03:46:04.146Z,98889.64
2018-12-31T03:46:35.738Z,98895.59
2018-12-31T03:47:07.330Z,98888.36
2018-12-31T03:47:38.922Z,98893.05
2018-12-31T03:48:10.514Z,98894.32
2018-12-31T03:48:42.109Z,98892.22
2018-12-31T03:49:13.717Z,98899.85
2018-12-31T03:49:45.352Z,98898.55
2018-12-31T03:50:16.942Z,98901.53
2018-12-31T03:50:48.540Z,98891.74
2018-12-31T03:51:20.135Z,98896.40
2018-12-31T03:51:51.735Z,98902.36
2018-12-31T03:52:23.345Z,98897.70
2018-12-31T03:52:54.960Z,98899.81
2018-12-31T03:53:26.572Z,98898.08
2018-12-31T03:53:58.184Z,98903.17
2018-12-31T03:54:30.106Z,98901.04
2018-12-31T03:55:01.706Z,98904.85
2018-12-31T03:55:33.316Z,98897.59
2018-12-31T03:56:04.925Z,98890.78
2018-12-31T03:56:36.534Z,98898.88
2018-12-31T03:57:08.144Z,98898.45
2018-12-31T03:57:39.755Z,98895.05
2018-12-31T03:58:11.353Z,98892.04
2018-12-31T03:58:42.968Z,98889.91
2018-12-31T03:59:14.547Z,98892.02
2018-12-31T03:59:46.167Z,98892.02
2018-12-31T04:00:17.762Z,98888.55
2018-12-31T04:00:49.368Z,98889.41
2018-12-31T04:01:20.961Z,98887.25
2018-12-31T04:01:52.540Z,98878.73
2018-12-31T04:02:24.149Z,98885.50
2018-12-31T04:02:55.809Z,98890.16
2018-12-31T04:03:27.401Z,98888.03
2018-12-31T04:03:59.035Z,98892.27
2018-12-31T04:04:30.632Z,98890.13
2018-12-31T04:05:02.269Z,98895.19
2018-12-31T04:05:33.871Z,98889.20
2018-12-31T04:06:05.465Z,98884.09
2018-12-31T04:06:37.061Z,98886.59
2018-12-31T04:07:08.672Z,98891.67
2018-12-31T04:07:40.267Z,98881.84
2018-12-31T04:08:11.864Z,98889.05
2018-12-31T04:08:43.476Z,98893.71
2018-12-31T04:09:15.071Z,98898.34
2018-12-31T04:09:46.940Z,98897.06
2018-12-31T04:10:18.531Z,98905.56
2018-12-31T04:10:50.133Z,98905.95
2018-12-31T04:11:21.723Z,98900.41
2018-12-31T04:11:53.318Z,98910.22
2018-12-31T04:12:24.922Z,98911.47
2018-12-31T04:12:56.514Z,98903.36
2018-12-31T04:13:28.124Z,98899.10
2018-12-31T04:13:59.733Z,98896.13
2018-12-31T04:14:31.336Z,98894.38
2018-12-31T04:15:02.972Z,98905.01
2018-12-31T04:15:34.577Z,98896.91
2018-12-31T04:16:06.176Z,98909.70
2018-12-31T04:16:37.773Z,98902.03
2018-12-31T04:17:09.367Z,98904.58
2018-12-31T04:17:40.971Z,98909.24
2018-12-31T04:18:12.566Z,98910.13
2018-12-31T04:18:44.177Z,98907.96
2018-12-31T04:19:15.760Z,98906.25
2018-12-31T04:19:47.353Z,98910.95
2018-12-31T04:20:18.978Z,98901.17
2018-12-31T04:20:50.587Z,98908.39
2018-12-31T04:21:22.196Z,98908.81
2018-12-31T04:21:53.794Z,98913.50
2018-12-31T04:22:25.399Z,98912.26
2018-12-31T04:22:56.994Z,98909.66
2018-12-31T04:23:28.776Z,98907.99
2018-12-31T04:24:00.233Z,98904.58
2018-12-31T04:24:31.845Z,98904.58
2018-12-31T04:25:03.435Z,98903.73
2018-12-31T04:25:35.029Z,98909.27
2018-12-31T04:26:06.630Z,98907.56
2018-12-31T04:26:38.214Z,98911.83
2018-12-31T04:27:09.819Z,98906.32
2018-12-31T04:27:41.415Z,98912.28
2018-12-31T04:28:12.996Z,98909.76
2018-12-31T04:28:44.589Z,98911.50
2018-12-31T04:29:16.201Z,98916.18
2018-12-31T04:29:47.802Z,98914.05
2018-12-31T04:30:19.431Z,98915.36
2018-12-31T04:30:51.025Z,98911.09
2018-12-31T04:31:22.632Z,98912.41
2018-12-31T04:31:54.549Z,98904.34
2018-12-31T04:32:27.218Z,98909.84
2018-12-31T04:32:58.810Z,98916.66
2018-12-31T04:33:30.407Z,98916.23
2018-12-31T04:34:02.041Z,98912.01
2018-12-31T04:34:33.647Z,98914.14
2018-12-31T04:35:05.240Z,98913.31
2018-12-31T04:35:36.852Z,98914.62
2018-12-31T04:36:08.481Z,98921.44
2018-12-31T04:36:40.114Z,98918.06
2018-12-31T04:37:11.710Z,98921.05
2018-12-31T04:37:43.808Z,98916.78
2018-12-31T04:38:15.416Z,98918.05
2018-12-31T04:38:47.011Z,98918.52
2018-12-31T04:39:18.619Z,98915.11
2018-12-31T04:39:50.224Z,98917.69
2018-12-31T04:40:21.846Z,98918.54
2018-12-31T04:40:53.482Z,98923.68
2018-12-31T04:41:25.089Z,98918.59
2018-12-31T04:41:56.700Z,98918.59
2018-12-31T04:42:28.294Z,98915.21
2018-12-31T04:42:59.905Z,98916.52
2018-12-31T04:43:31.498Z,98921.63
2018-12-31T04:44:03.089Z,98913.13
2018-12-31T04:44:34.683Z,98918.67
2018-12-31T04:45:06.284Z,98917.84
2018-12-31T04:45:37.924Z,98922.98
2018-12-31T04:46:09.518Z,98922.55
2018-12-31T04:46:41.119Z,98923.83
2018-12-31T04:47:12.714Z,98923.00
2018-12-31T04:47:44.319Z,98918.77
2018-12-31T04:48:15.913Z,98924.30
2018-12-31T04:48:47.521Z,98924.76
2018-12-31T04:49:19.123Z,98922.20
2018-12-31T04:49:50.719Z,98919.22
2018-12-31T04:50:22.351Z,98921.38
2018-12-31T04:50:53.983Z,98922.62
2018-12-31T04:51:25.597Z,98923.08
2018-12-31T04:51:57.198Z,98922.25
2018-12-31T04:52:28.809Z,98917.56
2018-12-31T04:53:00.420Z,98917.14
2018-12-31T04:53:32.016Z,98919.27
2018-12-31T04:54:03.624Z,98921.84
2018-12-31T04:54:35.228Z,98919.31
2018-12-31T04:55:06.827Z,98920.17
2018-12-31T04:55:44.394Z,98927.41
2018-12-31T04:56:10.097Z,98922.70
2018-12-31T04:56:41.694Z,98926.97
2018-12-31T04:57:13.307Z,98929.12
2018-12-31T04:57:44.902Z,98929.14
2018-12-31T04:58:22.921Z,98932.55
2018-12-31T04:58:48.162Z,98929.16
2018-12-31T04:59:19.763Z,98931.29
2018-12-31T04:59:51.369Z,98924.05
2018-12-31T05:00:22.977Z,98927.86
2018-12-31T05:00:54.606Z,98927.45
2018-12-31T05:01:26.201Z,98928.72
2018-12-31T05:01:57.798Z,98930.84
2018-12-31T05:02:29.389Z,98930.00
2018-12-31T05:03:00.981Z,98923.20
2018-12-31T05:03:32.575Z,98930.84
2018-12-31T05:04:04.185Z,98934.67
2018-12-31T05:04:35.796Z,98943.19
2018-12-31T05:05:07.398Z,98945.73
2018-12-31T05:05:39.004Z,98948.72
2018-12-31T05:06:10.636Z,98939.38
2018-12-31T05:06:42.242Z,98938.53
2018-12-31T05:07:13.847Z,98941.53
2018-12-31T05:07:45.451Z,98940.25
2018-12-31T05:08:17.046Z,98947.48
2018-12-31T05:08:48.639Z,98945.78
2018-12-31T05:09:20.249Z,98939.42
2018-12-31T05:09:51.832Z,98944.55
2018-12-31T05:10:23.429Z,98950.50
2018-12-31T05:10:55.049Z,98953.91
2018-12-31T05:11:26.643Z,98950.08
2018-12-31T05:11:58.238Z,98952.62
2018-12-31T05:12:29.851Z,98928.90
2018-12-31T05:13:01.456Z,98946.72
2018-12-31T05:13:33.066Z,98957.76
2018-12-31T05:14:04.662Z,98951.40
2018-12-31T05:14:36.257Z,98951.39
2018-12-31T05:15:07.857Z,98955.67
2018-12-31T05:15:39.466Z,98956.52
2018-12-31T05:16:11.091Z,98955.27
2018-12-31T05:16:42.699Z,98950.59
2018-12-31T05:17:14.293Z,98949.30
2018-12-31T05:17:45.876Z,98950.19
2018-12-31T05:18:17.470Z,98947.20
2018-12-31T05:18:49.063Z,98948.07
2018-12-31T05:19:20.672Z,98947.63
2018-12-31T05:19:52.273Z,98948.09
2018-12-31T05:20:23.854Z,98945.95
2018-12-31T05:20:55.826Z,98945.12
2018-12-31T05:21:27.421Z,98945.55
2018-12-31T05:21:59.003Z,98941.31
2018-12-31T05:22:30.598Z,98944.72
2018-12-31T05:23:02.175Z,98948.12
2018-12-31T05:23:33.764Z,98948.12
2018-12-31T05:24:05.358Z,98941.73
2018-12-31T05:24:36.956Z,98945.57
2018-12-31T05:25:08.559Z,98941.71
2018-12-31T05:25:40.161Z,98943.42
2018-12-31T05:26:11.800Z,98939.15
2018-12-31T05:26:43.403Z,98943.39
2018-12-31T05:27:14.988Z,98946.33
2018-12-31T05:27:46.592Z,98941.20
2018-12-31T05:28:18.216Z,98948.84
2018-12-31T05:28:49.796Z,98949.23
2018-12-31T05:29:21.390Z,98947.08
2018-12-31T05:29:53.036Z,98946.21
2018-12-31T05:30:24.652Z,98948.75
2018-12-31T05:30:56.236Z,98948.72
2018-12-31T05:31:27.852Z,98945.72
2018-12-31T05:32:00.243Z,98944.00
2018-12-31T05:32:31.838Z,98947.38
2018-12-31T05:33:03.430Z,98946.14
2018-12-31T05:33:35.040Z,98946.95
2018-12-31T05:34:06.646Z,98948.20
2018-12-31T05:34:38.232Z,98946.91
2018-12-31T05:35:09.829Z,98948.16
2018-12-31T05:35:41.422Z,98944.30
2018-12-31T05:36:13.056Z,98944.70
2018-12-31T05:36:44.662Z,98945.95
2018-12-31T05:37:16.258Z,98948.47
2018-12-31T05:37:47.859Z,98950.14
2018-12-31T05:38:19.457Z,98956.48
2018-12-31T05:38:51.069Z,98954.33
2018-12-31T05:39:22.680Z,98957.69
2018-12-31T05:39:54.278Z,98956.38
2018-12-31T05:40:25.880Z,98952.95
2018-12-31T05:40:57.463Z,98949.94
2018-12-31T05:41:29.081Z,98959.28
2018-12-31T05:42:00.673Z,98956.70
2018-12-31T05:42:32.298Z,98956.67
2018-12-31T05:43:04.226Z,98955.36
2018-12-31T05:43:35.818Z,98957.50
2018-12-31T05:44:07.406Z,98954.06
2018-12-31T05:44:39.012Z,98947.63
2018-12-31T05:45:10.610Z,98956.98
2018-12-31T05:45:42.216Z,98954.82
2018-12-31T05:46:13.843Z,98950.50
2018-12-31T05:46:45.437Z,98955.63
2018-12-31T05:47:17.040Z,98950.94
2018-12-31T05:47:48.634Z,98955.16
2018-12-31T05:48:20.230Z,98954.73
2018-12-31T05:48:51.836Z,98956.41
2018-12-31T05:49:23.430Z,98954.67
2018-12-31T05:49:55.026Z,98952.97
2018-12-31T05:50:26.618Z,98958.91
2018-12-31T05:50:58.200Z,98958.91
2018-12-31T05:51:29.840Z,98964.03
2018-12-31T05:52:01.423Z,98963.17
2018-12-31T05:52:33.018Z,98956.38
2018-12-31T05:53:04.627Z,98960.19
2018-12-31T05:53:36.221Z,98959.33
2018-12-31T05:54:07.830Z,98961.50
2018-12-31T05:54:39.441Z,98961.95
2018-12-31T05:55:11.047Z,98964.09
2018-12-31T05:55:42.645Z,98959.42
2018-12-31T05:56:14.256Z,98957.30
2018-12-31T05:56:45.883Z,98963.27
2018-12-31T05:57:17.464Z,98960.73
2018-12-31T05:57:49.053Z,98962.47
2018-12-31T05:58:20.659Z,98956.89
2018-12-31T05:58:52.272Z,98964.14
2018-12-31T05:59:23.870Z,98956.92
2018-12-31T05:59:55.463Z,98960.77
2018-12-31T06:00:27.068Z,98958.66
2018-12-31T06:00:58.676Z,98964.20
2018-12-31T06:01:30.311Z,98960.82
2018-12-31T06:02:01.908Z,98959.54
2018-12-31T06:02:33.506Z,98959.12
2018-12-31T06:03:05.114Z,98958.72
2018-12-31T06:03:36.713Z,98957.05
2018-12-31T06:04:08.305Z,98956.19
2018-12-31T06:04:39.912Z,98954.52
2018-12-31T06:05:11.500Z,98957.52
2018-12-31T06:05:43.095Z,98957.95
2018-12-31T06:06:14.694Z,98965.63
2018-12-31T06:06:46.323Z,98961.81
2018-12-31T06:07:17.919Z,98963.09
2018-12-31T06:07:49.510Z,98966.10
2018-12-31T06:08:21.106Z,98966.55
2018-12-31T06:08:52.707Z,98966.58
2018-12-31T06:09:24.297Z,98964.91
2018-12-31T06:09:55.904Z,98966.61
2018-12-31T06:10:27.539Z,98965.75
2018-12-31T06:10:59.153Z,98970.05
2018-12-31T06:11:30.779Z,98969.62